THA613 ZPPP-VTBS
Flight info
| Callsign | THA613 |
|---|---|
| Flight time | 1h 50m |
| Altitude | 38000 |
| Route | ELASU1Y ELASU A581 SAGAG/N0482F380 B218 LPB B346 NOBER NORTA1C |
| Aircraft | B772/H-SDE2E3FGHIJ5LORVWXY/LB1D1 |
Departure
| Time | 2026-04-30 07:48 |
|---|---|
| Airport | Kunming Changshui International Airport (ZPPP) |
Arrival
| Time | 2026-04-30 09:39 |
|---|---|
| Airport | Suvarnabhumi Airport (VTBS) |
| Time | Latitude | Longitude | Altitude | Speed | Heading |
|---|---|---|---|---|---|
| 2026-04-30 07:18 | 25.09736 | 102.93223 | 6900 ft | 0 kts | 264° |
| 2026-04-30 07:28 | 25.09737 | 102.93224 | 6900 ft | 2 kts | 264° |
| 2026-04-30 07:29 | 25.09739 | 102.93252 | 6901 ft | 4 kts | 264° |
| 2026-04-30 07:29 | 25.09742 | 102.93282 | 6900 ft | 4 kts | 264° |
| 2026-04-30 07:29 | 25.09745 | 102.93308 | 6901 ft | 2 kts | 264° |
| 2026-04-30 07:29 | 25.09751 | 102.93332 | 6900 ft | 4 kts | 216° |
| 2026-04-30 07:30 | 25.09785 | 102.93312 | 6900 ft | 4 kts | 128° |
| 2026-04-30 07:30 | 25.09798 | 102.93294 | 6901 ft | 0 kts | 128° |
| 2026-04-30 07:34 | 25.09797 | 102.93295 | 6900 ft | 0 kts | 128° |
| 2026-04-30 07:35 | 25.09795 | 102.93298 | 6900 ft | 1 kts | 128° |
| 2026-04-30 07:35 | 25.09789 | 102.93307 | 6901 ft | 2 kts | 128° |
| 2026-04-30 07:35 | 25.09779 | 102.93320 | 6901 ft | 3 kts | 128° |
| 2026-04-30 07:35 | 25.09766 | 102.93338 | 6900 ft | 3 kts | 128° |
| 2026-04-30 07:36 | 25.09754 | 102.93363 | 6900 ft | 4 kts | 108° |
| 2026-04-30 07:36 | 25.09766 | 102.93394 | 6900 ft | 5 kts | 50° |
| 2026-04-30 07:36 | 25.09799 | 102.93427 | 6900 ft | 8 kts | 40° |
| 2026-04-30 07:36 | 25.09849 | 102.93471 | 6899 ft | 10 kts | 37° |
| 2026-04-30 07:37 | 25.09910 | 102.93523 | 6899 ft | 12 kts | 38° |
| 2026-04-30 07:37 | 25.09978 | 102.93583 | 6899 ft | 13 kts | 38° |
| 2026-04-30 07:37 | 25.10052 | 102.93648 | 6899 ft | 14 kts | 38° |
| 2026-04-30 07:37 | 25.10123 | 102.93710 | 6898 ft | 12 kts | 38° |
| 2026-04-30 07:38 | 25.10190 | 102.93768 | 6898 ft | 12 kts | 38° |
| 2026-04-30 07:38 | 25.10256 | 102.93824 | 6898 ft | 12 kts | 38° |
| 2026-04-30 07:38 | 25.10320 | 102.93881 | 6898 ft | 12 kts | 39° |
| 2026-04-30 07:38 | 25.10389 | 102.93942 | 6898 ft | 13 kts | 39° |
| 2026-04-30 07:39 | 25.10460 | 102.93997 | 6898 ft | 10 kts | 15° |
| 2026-04-30 07:39 | 25.10520 | 102.93954 | 6898 ft | 11 kts | 309° |
| 2026-04-30 07:39 | 25.10568 | 102.93888 | 6898 ft | 11 kts | 308° |
| 2026-04-30 07:39 | 25.10615 | 102.93822 | 6899 ft | 11 kts | 308° |
| 2026-04-30 07:40 | 25.10663 | 102.93756 | 6899 ft | 11 kts | 308° |
| 2026-04-30 07:40 | 25.10713 | 102.93687 | 6900 ft | 12 kts | 308° |
| 2026-04-30 07:40 | 25.10770 | 102.93607 | 6901 ft | 14 kts | 308° |
| 2026-04-30 07:40 | 25.10837 | 102.93514 | 6902 ft | 17 kts | 308° |
| 2026-04-30 07:41 | 25.10910 | 102.93414 | 6916 ft | 17 kts | 309° |
| 2026-04-30 07:41 | 25.10989 | 102.93305 | 6914 ft | 19 kts | 308° |
| 2026-04-30 07:41 | 25.11071 | 102.93189 | 6923 ft | 18 kts | 308° |
| 2026-04-30 07:41 | 25.11143 | 102.93089 | 6923 ft | 17 kts | 308° |
| 2026-04-30 07:42 | 25.11214 | 102.92991 | 6919 ft | 11 kts | 308° |
| 2026-04-30 07:42 | 25.11258 | 102.92965 | 6908 ft | 6 kts | 18° |
| 2026-04-30 07:42 | 25.11304 | 102.93001 | 6909 ft | 10 kts | 38° |
| 2026-04-30 07:42 | 25.11373 | 102.93061 | 6907 ft | 15 kts | 38° |
| 2026-04-30 07:43 | 25.11465 | 102.93142 | 6920 ft | 19 kts | 38° |
| 2026-04-30 07:43 | 25.11577 | 102.93240 | 6921 ft | 23 kts | 38° |
| 2026-04-30 07:43 | 25.11708 | 102.93354 | 6917 ft | 25 kts | 38° |
| 2026-04-30 07:43 | 25.11851 | 102.93477 | 6918 ft | 27 kts | 38° |
| 2026-04-30 07:44 | 25.12003 | 102.93610 | 6912 ft | 29 kts | 38° |
| 2026-04-30 07:44 | 25.12160 | 102.93746 | 6913 ft | 29 kts | 38° |
| 2026-04-30 07:44 | 25.12317 | 102.93882 | 6903 ft | 29 kts | 38° |
| 2026-04-30 07:44 | 25.12473 | 102.94019 | 6902 ft | 29 kts | 38° |
| 2026-04-30 07:45 | 25.12613 | 102.94140 | 6902 ft | 25 kts | 38° |
| 2026-04-30 07:45 | 25.12740 | 102.94250 | 6901 ft | 22 kts | 38° |
| 2026-04-30 07:45 | 25.12834 | 102.94331 | 6900 ft | 6 kts | 38° |
| 2026-04-30 07:45 | 25.12879 | 102.94353 | 6900 ft | 8 kts | 353° |
| 2026-04-30 07:46 | 25.12926 | 102.94313 | 6900 ft | 10 kts | 311° |
| 2026-04-30 07:46 | 25.12947 | 102.94283 | 6900 ft | 5 kts | 308° |
| 2026-04-30 07:46 | 25.12975 | 102.94245 | 6900 ft | 8 kts | 308° |
| 2026-04-30 07:46 | 25.13013 | 102.94189 | 6899 ft | 10 kts | 308° |
| 2026-04-30 07:47 | 25.13026 | 102.94140 | 6898 ft | 5 kts | 242° |
| 2026-04-30 07:47 | 25.12999 | 102.94108 | 6898 ft | 6 kts | 222° |
| 2026-04-30 07:47 | 25.12969 | 102.94084 | 6898 ft | 0 kts | 218° |
| 2026-04-30 07:48 | 25.12821 | 102.93955 | 6899 ft | 62 kts | 218° |
| 2026-04-30 07:48 | 25.12309 | 102.93509 | 6913 ft | 126 kts | 218° |
| 2026-04-30 07:48 | 25.11472 | 102.92780 | 6942 ft | 177 kts | 218° |
| 2026-04-30 07:48 | 25.10505 | 102.91930 | 7810 ft | 176 kts | 219° |
| 2026-04-30 07:49 | 25.09577 | 102.91085 | 8624 ft | 177 kts | 226° |
| 2026-04-30 07:49 | 25.08898 | 102.89904 | 8878 ft | 192 kts | 239° |
| 2026-04-30 07:49 | 25.08108 | 102.88624 | 9010 ft | 216 kts | 232° |
| 2026-04-30 07:49 | 25.07159 | 102.87232 | 9245 ft | 238 kts | 232° |
| 2026-04-30 07:50 | 25.06107 | 102.85696 | 9513 ft | 260 kts | 232° |
| 2026-04-30 07:50 | 25.04993 | 102.84057 | 10013 ft | 271 kts | 232° |
| 2026-04-30 07:50 | 25.03846 | 102.82359 | 10458 ft | 286 kts | 233° |
| 2026-04-30 07:50 | 25.02603 | 102.80520 | 10617 ft | 313 kts | 233° |
| 2026-04-30 07:51 | 25.01260 | 102.78528 | 10998 ft | 332 kts | 233° |
| 2026-04-30 07:51 | 24.99861 | 102.76452 | 11722 ft | 343 kts | 234° |
| 2026-04-30 07:51 | 24.98698 | 102.74164 | 12426 ft | 347 kts | 252° |
| 2026-04-30 07:51 | 24.98333 | 102.71522 | 13468 ft | 352 kts | 270° |
| 2026-04-30 07:52 | 24.98667 | 102.68836 | 14499 ft | 357 kts | 284° |
| 2026-04-30 07:52 | 24.98902 | 102.68047 | 14789 ft | 359 kts | 290° |
| 2026-04-30 07:52 | 25.00007 | 102.65829 | 15615 ft | 367 kts | 301° |
| 2026-04-30 07:52 | 25.01418 | 102.63462 | 16557 ft | 372 kts | 301° |
| 2026-04-30 07:53 | 25.02837 | 102.61055 | 17528 ft | 376 kts | 301° |
| 2026-04-30 07:53 | 25.04262 | 102.58655 | 18425 ft | 383 kts | 301° |
| 2026-04-30 07:53 | 25.05716 | 102.56167 | 19219 ft | 384 kts | 298° |
| 2026-04-30 07:53 | 25.06707 | 102.53436 | 19805 ft | 389 kts | 279° |
| 2026-04-30 07:54 | 25.06777 | 102.50448 | 20598 ft | 393 kts | 263° |
| 2026-04-30 07:54 | 25.06128 | 102.47513 | 21499 ft | 396 kts | 248° |
| 2026-04-30 07:54 | 25.04912 | 102.44770 | 22316 ft | 401 kts | 242° |
| 2026-04-30 07:54 | 25.03572 | 102.42042 | 23069 ft | 408 kts | 241° |
| 2026-04-30 07:55 | 25.02192 | 102.39279 | 23835 ft | 413 kts | 241° |
| 2026-04-30 07:55 | 25.00810 | 102.36492 | 24584 ft | 417 kts | 241° |
| 2026-04-30 07:55 | 24.99426 | 102.33667 | 25293 ft | 421 kts | 242° |
| 2026-04-30 07:55 | 24.98038 | 102.30804 | 25945 ft | 426 kts | 242° |
| 2026-04-30 07:56 | 24.96642 | 102.27906 | 26597 ft | 430 kts | 242° |
| 2026-04-30 07:56 | 24.95238 | 102.24978 | 27222 ft | 434 kts | 242° |
| 2026-04-30 07:56 | 24.93821 | 102.22023 | 27830 ft | 438 kts | 242° |
| 2026-04-30 07:56 | 24.92388 | 102.19035 | 28403 ft | 442 kts | 242° |
| 2026-04-30 07:57 | 24.90943 | 102.16024 | 28952 ft | 447 kts | 242° |
| 2026-04-30 07:57 | 24.89485 | 102.12987 | 29496 ft | 450 kts | 242° |
| 2026-04-30 07:57 | 24.88014 | 102.09927 | 30041 ft | 454 kts | 242° |
| 2026-04-30 07:57 | 24.86531 | 102.06843 | 30463 ft | 457 kts | 243° |
| 2026-04-30 07:58 | 24.85045 | 102.03800 | 30875 ft | 455 kts | 240° |
| 2026-04-30 07:58 | 24.83063 | 102.01045 | 31108 ft | 466 kts | 224° |
| 2026-04-30 07:58 | 24.80401 | 101.98962 | 31445 ft | 474 kts | 210° |
| 2026-04-30 07:58 | 24.77328 | 101.97608 | 31851 ft | 478 kts | 197° |
| 2026-04-30 07:59 | 24.74058 | 101.96802 | 32097 ft | 485 kts | 194° |
| 2026-04-30 07:59 | 24.70731 | 101.96062 | 32397 ft | 488 kts | 194° |
| 2026-04-30 07:59 | 24.67399 | 101.95331 | 32824 ft | 488 kts | 194° |
| 2026-04-30 08:00 | 24.61806 | 101.94062 | 33293 ft | 492 kts | 195° |
| 2026-04-30 08:00 | 24.58503 | 101.93285 | 33705 ft | 491 kts | 195° |
| 2026-04-30 08:00 | 24.55169 | 101.92487 | 34127 ft | 490 kts | 195° |
| 2026-04-30 08:00 | 24.51840 | 101.91684 | 34510 ft | 489 kts | 195° |
| 2026-04-30 08:01 | 24.48512 | 101.90878 | 34847 ft | 490 kts | 195° |
| 2026-04-30 08:01 | 24.45179 | 101.90072 | 35182 ft | 491 kts | 195° |
| 2026-04-30 08:01 | 24.41830 | 101.89260 | 35526 ft | 493 kts | 195° |
| 2026-04-30 08:01 | 24.38490 | 101.88452 | 35908 ft | 492 kts | 195° |
| 2026-04-30 08:02 | 24.31786 | 101.86839 | 36615 ft | 494 kts | 195° |
| 2026-04-30 08:02 | 24.28427 | 101.86031 | 36953 ft | 495 kts | 195° |
| 2026-04-30 08:03 | 24.21681 | 101.84410 | 37671 ft | 495 kts | 195° |
| 2026-04-30 08:03 | 24.14963 | 101.82798 | 37911 ft | 501 kts | 195° |
| 2026-04-30 08:04 | 24.08197 | 101.81178 | 37911 ft | 494 kts | 195° |
| 2026-04-30 08:04 | 24.01489 | 101.79565 | 37927 ft | 493 kts | 195° |
| 2026-04-30 08:05 | 23.95147 | 101.76967 | 37938 ft | 483 kts | 214° |
| 2026-04-30 08:05 | 23.89451 | 101.73072 | 37938 ft | 482 kts | 216° |
| 2026-04-30 08:06 | 23.83782 | 101.69171 | 37938 ft | 480 kts | 215° |
| 2026-04-30 08:06 | 23.78074 | 101.65373 | 37930 ft | 482 kts | 214° |
| 2026-04-30 08:07 | 23.72303 | 101.61596 | 37936 ft | 486 kts | 214° |
| 2026-04-30 08:07 | 23.66463 | 101.57790 | 37950 ft | 490 kts | 214° |
| 2026-04-30 08:08 | 23.60599 | 101.53969 | 37937 ft | 490 kts | 214° |
| 2026-04-30 08:08 | 23.54808 | 101.50197 | 37958 ft | 485 kts | 214° |
| 2026-04-30 08:09 | 23.49030 | 101.46436 | 37948 ft | 482 kts | 214° |
| 2026-04-30 08:09 | 23.43264 | 101.42682 | 37952 ft | 482 kts | 214° |
| 2026-04-30 08:10 | 23.37506 | 101.38938 | 37957 ft | 483 kts | 214° |
| 2026-04-30 08:10 | 23.31732 | 101.35189 | 37950 ft | 482 kts | 214° |
| 2026-04-30 08:11 | 23.25984 | 101.31464 | 37964 ft | 479 kts | 214° |
| 2026-04-30 08:11 | 23.20268 | 101.27755 | 37964 ft | 479 kts | 213° |
| 2026-04-30 08:12 | 23.14526 | 101.24042 | 37963 ft | 481 kts | 213° |
| 2026-04-30 08:12 | 23.08749 | 101.20309 | 37980 ft | 483 kts | 213° |
| 2026-04-30 08:13 | 23.02971 | 101.16575 | 37962 ft | 484 kts | 213° |
| 2026-04-30 08:13 | 22.97187 | 101.12841 | 37966 ft | 483 kts | 213° |
| 2026-04-30 08:14 | 22.91458 | 101.09149 | 37972 ft | 480 kts | 213° |
| 2026-04-30 08:14 | 22.85724 | 101.05455 | 37972 ft | 479 kts | 213° |
| 2026-04-30 08:15 | 22.80002 | 101.01772 | 37978 ft | 478 kts | 213° |
| 2026-04-30 08:15 | 22.74111 | 100.98378 | 37969 ft | 480 kts | 199° |
| 2026-04-30 08:15 | 22.70834 | 100.97831 | 37989 ft | 486 kts | 182° |
| 2026-04-30 08:16 | 22.67479 | 100.98243 | 37967 ft | 490 kts | 166° |
| 2026-04-30 08:16 | 22.61160 | 101.00968 | 37978 ft | 490 kts | 159° |
| 2026-04-30 08:17 | 22.54859 | 101.03831 | 37971 ft | 492 kts | 159° |
| 2026-04-30 08:17 | 22.48509 | 101.06628 | 37985 ft | 492 kts | 160° |
| 2026-04-30 08:18 | 22.42145 | 101.09385 | 37987 ft | 492 kts | 160° |
| 2026-04-30 08:18 | 22.35831 | 101.12116 | 37978 ft | 490 kts | 160° |
| 2026-04-30 08:19 | 22.29479 | 101.14864 | 37971 ft | 487 kts | 160° |
| 2026-04-30 08:19 | 22.23232 | 101.17563 | 37977 ft | 485 kts | 160° |
| 2026-04-30 08:20 | 22.16969 | 101.20266 | 37972 ft | 485 kts | 160° |
| 2026-04-30 08:20 | 22.10697 | 101.22973 | 37977 ft | 486 kts | 160° |
| 2026-04-30 08:21 | 22.04399 | 101.25689 | 37971 ft | 486 kts | 159° |
| 2026-04-30 08:21 | 21.98115 | 101.28396 | 37972 ft | 486 kts | 159° |
| 2026-04-30 08:22 | 21.91839 | 101.31097 | 37979 ft | 485 kts | 160° |
| 2026-04-30 08:22 | 21.85567 | 101.33800 | 37986 ft | 485 kts | 160° |
| 2026-04-30 08:23 | 21.79335 | 101.36489 | 37983 ft | 486 kts | 160° |
| 2026-04-30 08:23 | 21.73063 | 101.39197 | 37980 ft | 486 kts | 160° |
| 2026-04-30 08:24 | 21.66793 | 101.41895 | 37993 ft | 486 kts | 160° |
| 2026-04-30 08:24 | 21.60511 | 101.44601 | 37996 ft | 489 kts | 160° |
| 2026-04-30 08:25 | 21.54214 | 101.47299 | 37974 ft | 487 kts | 160° |
| 2026-04-30 08:25 | 21.47966 | 101.49975 | 37986 ft | 484 kts | 160° |
| 2026-04-30 08:26 | 21.41694 | 101.52667 | 37994 ft | 486 kts | 160° |
| 2026-04-30 08:26 | 21.35396 | 101.55371 | 37988 ft | 488 kts | 160° |
| 2026-04-30 08:27 | 21.29081 | 101.58072 | 37994 ft | 490 kts | 160° |
| 2026-04-30 08:27 | 21.22784 | 101.60767 | 37996 ft | 489 kts | 160° |
| 2026-04-30 08:28 | 21.16458 | 101.63475 | 37995 ft | 488 kts | 160° |
| 2026-04-30 08:28 | 21.10161 | 101.66192 | 37997 ft | 487 kts | 159° |
| 2026-04-30 08:29 | 21.03874 | 101.68916 | 37997 ft | 487 kts | 160° |
| 2026-04-30 08:29 | 20.97576 | 101.71634 | 38002 ft | 489 kts | 160° |
| 2026-04-30 08:30 | 20.91251 | 101.74358 | 37997 ft | 490 kts | 160° |
| 2026-04-30 08:30 | 20.84944 | 101.77060 | 37984 ft | 490 kts | 160° |
| 2026-04-30 08:31 | 20.78638 | 101.79788 | 37979 ft | 489 kts | 160° |
| 2026-04-30 08:31 | 20.72277 | 101.82564 | 37969 ft | 495 kts | 159° |
| 2026-04-30 08:32 | 20.65963 | 101.85295 | 37965 ft | 486 kts | 160° |
| 2026-04-30 08:32 | 20.59660 | 101.87951 | 37989 ft | 487 kts | 160° |
| 2026-04-30 08:33 | 20.53370 | 101.90630 | 37969 ft | 487 kts | 160° |
| 2026-04-30 08:33 | 20.47096 | 101.93308 | 37971 ft | 485 kts | 160° |
| 2026-04-30 08:34 | 20.40836 | 101.95993 | 37979 ft | 485 kts | 160° |
| 2026-04-30 08:34 | 20.34573 | 101.98676 | 37960 ft | 485 kts | 160° |
| 2026-04-30 08:35 | 20.28329 | 102.01343 | 37972 ft | 487 kts | 161° |
| 2026-04-30 08:35 | 20.21974 | 102.04061 | 37960 ft | 490 kts | 160° |
| 2026-04-30 08:36 | 20.15708 | 102.06722 | 37919 ft | 488 kts | 161° |
| 2026-04-30 08:36 | 20.09398 | 102.09416 | 37914 ft | 488 kts | 161° |
| 2026-04-30 08:37 | 20.03083 | 102.12106 | 37889 ft | 489 kts | 161° |
| 2026-04-30 08:37 | 19.96758 | 102.14795 | 37891 ft | 490 kts | 161° |
| 2026-04-30 08:37 | 19.93533 | 102.15886 | 37880 ft | 485 kts | 172° |
| 2026-04-30 08:38 | 19.90198 | 102.16244 | 37893 ft | 480 kts | 183° |
| 2026-04-30 08:38 | 19.83702 | 102.15110 | 37891 ft | 471 kts | 199° |
| 2026-04-30 08:39 | 19.77413 | 102.13094 | 37906 ft | 473 kts | 199° |
| 2026-04-30 08:39 | 19.71103 | 102.11092 | 37904 ft | 474 kts | 199° |
| 2026-04-30 08:40 | 19.64755 | 102.09128 | 37946 ft | 475 kts | 199° |
| 2026-04-30 08:40 | 19.58402 | 102.07184 | 37951 ft | 475 kts | 199° |
| 2026-04-30 08:41 | 19.52037 | 102.05244 | 37956 ft | 476 kts | 199° |
| 2026-04-30 08:41 | 19.45677 | 102.03306 | 37951 ft | 476 kts | 199° |
| 2026-04-30 08:42 | 19.39311 | 102.01366 | 37949 ft | 475 kts | 199° |
| 2026-04-30 08:42 | 19.33001 | 101.99445 | 37952 ft | 474 kts | 199° |
| 2026-04-30 08:43 | 19.26662 | 101.97530 | 37959 ft | 474 kts | 199° |
| 2026-04-30 08:43 | 19.20328 | 101.95589 | 37949 ft | 474 kts | 199° |
| 2026-04-30 08:44 | 19.13989 | 101.93657 | 37945 ft | 472 kts | 199° |
| 2026-04-30 08:44 | 19.07670 | 101.91742 | 37974 ft | 474 kts | 199° |
| 2026-04-30 08:45 | 19.02398 | 101.90137 | 37942 ft | 473 kts | 200° |
| 2026-04-30 08:45 | 18.95035 | 101.87901 | 37943 ft | 473 kts | 200° |
| 2026-04-30 08:46 | 18.88708 | 101.85989 | 37954 ft | 472 kts | 200° |
| 2026-04-30 08:46 | 18.83451 | 101.84399 | 37947 ft | 473 kts | 200° |
| 2026-04-30 08:47 | 18.77131 | 101.82487 | 37942 ft | 472 kts | 200° |
| 2026-04-30 08:47 | 18.70806 | 101.80575 | 37935 ft | 473 kts | 200° |
| 2026-04-30 08:48 | 18.63465 | 101.78356 | 37935 ft | 472 kts | 200° |
| 2026-04-30 08:48 | 18.58175 | 101.76761 | 37942 ft | 471 kts | 200° |
| 2026-04-30 08:49 | 18.51873 | 101.74862 | 37932 ft | 471 kts | 200° |
| 2026-04-30 08:49 | 18.45573 | 101.72961 | 37946 ft | 471 kts | 200° |
| 2026-04-30 08:50 | 18.39303 | 101.71074 | 37934 ft | 472 kts | 200° |
| 2026-04-30 08:50 | 18.32987 | 101.69172 | 37946 ft | 472 kts | 200° |
| 2026-04-30 08:51 | 18.26668 | 101.67274 | 37936 ft | 472 kts | 200° |
| 2026-04-30 08:51 | 18.20361 | 101.65379 | 37924 ft | 469 kts | 200° |
| 2026-04-30 08:52 | 18.14093 | 101.63497 | 37934 ft | 468 kts | 200° |
| 2026-04-30 08:52 | 18.07834 | 101.61620 | 37936 ft | 468 kts | 200° |
| 2026-04-30 08:53 | 18.01580 | 101.59744 | 37942 ft | 468 kts | 200° |
| 2026-04-30 08:53 | 17.95309 | 101.57864 | 37942 ft | 468 kts | 200° |
| 2026-04-30 08:54 | 17.89081 | 101.56000 | 37940 ft | 469 kts | 200° |
| 2026-04-30 08:54 | 17.82803 | 101.54123 | 37941 ft | 469 kts | 200° |
| 2026-04-30 08:55 | 17.76521 | 101.52244 | 37944 ft | 470 kts | 200° |
| 2026-04-30 08:55 | 17.70224 | 101.50362 | 37951 ft | 470 kts | 200° |
| 2026-04-30 08:56 | 17.63939 | 101.48477 | 37940 ft | 469 kts | 200° |
| 2026-04-30 08:56 | 17.57673 | 101.46597 | 37948 ft | 468 kts | 200° |
| 2026-04-30 08:57 | 17.51391 | 101.44715 | 37948 ft | 468 kts | 200° |
| 2026-04-30 08:57 | 17.45120 | 101.42840 | 37943 ft | 469 kts | 200° |
| 2026-04-30 08:58 | 17.38856 | 101.40966 | 37941 ft | 468 kts | 201° |
| 2026-04-30 08:58 | 17.32588 | 101.39092 | 37945 ft | 468 kts | 201° |
| 2026-04-30 08:59 | 17.26334 | 101.37224 | 37936 ft | 467 kts | 201° |
| 2026-04-30 08:59 | 17.20082 | 101.35346 | 37938 ft | 467 kts | 201° |
| 2026-04-30 09:00 | 17.13869 | 101.33481 | 37920 ft | 467 kts | 201° |
| 2026-04-30 09:00 | 17.07625 | 101.31614 | 37915 ft | 467 kts | 201° |
| 2026-04-30 09:01 | 17.01384 | 101.29755 | 37915 ft | 466 kts | 201° |
| 2026-04-30 09:01 | 16.95161 | 101.27902 | 37902 ft | 464 kts | 201° |
| 2026-04-30 09:02 | 16.85841 | 101.25126 | 37880 ft | 464 kts | 201° |
| 2026-04-30 09:02 | 16.79614 | 101.23272 | 37859 ft | 465 kts | 201° |
| 2026-04-30 09:03 | 16.73402 | 101.21425 | 37837 ft | 465 kts | 201° |
| 2026-04-30 09:03 | 16.67187 | 101.19554 | 37857 ft | 463 kts | 203° |
| 2026-04-30 09:04 | 16.61136 | 101.17303 | 37859 ft | 462 kts | 205° |
| 2026-04-30 09:04 | 16.55103 | 101.14972 | 37858 ft | 462 kts | 205° |
| 2026-04-30 09:05 | 16.49067 | 101.12654 | 37858 ft | 462 kts | 205° |
| 2026-04-30 09:05 | 16.43022 | 101.10350 | 37855 ft | 463 kts | 205° |
| 2026-04-30 09:06 | 16.36967 | 101.08050 | 37859 ft | 463 kts | 205° |
| 2026-04-30 09:06 | 16.30900 | 101.05748 | 37840 ft | 465 kts | 205° |
| 2026-04-30 09:07 | 16.24813 | 101.03439 | 37843 ft | 466 kts | 205° |
| 2026-04-30 09:07 | 16.18746 | 101.01141 | 37841 ft | 466 kts | 204° |
| 2026-04-30 09:08 | 16.12648 | 100.98830 | 37821 ft | 465 kts | 204° |
| 2026-04-30 09:08 | 16.06565 | 100.96525 | 37823 ft | 465 kts | 205° |
| 2026-04-30 09:09 | 16.00483 | 100.94222 | 37833 ft | 466 kts | 205° |
| 2026-04-30 09:09 | 15.94395 | 100.91931 | 37824 ft | 465 kts | 205° |
| 2026-04-30 09:10 | 15.88340 | 100.89637 | 37825 ft | 467 kts | 205° |
| 2026-04-30 09:10 | 15.82223 | 100.87325 | 37816 ft | 468 kts | 205° |
| 2026-04-30 09:11 | 15.76079 | 100.85009 | 37827 ft | 469 kts | 205° |
| 2026-04-30 09:11 | 15.69952 | 100.82695 | 37813 ft | 469 kts | 205° |
| 2026-04-30 09:12 | 15.63820 | 100.80390 | 37814 ft | 468 kts | 205° |
| 2026-04-30 09:12 | 15.57698 | 100.78082 | 37820 ft | 468 kts | 205° |
| 2026-04-30 09:13 | 15.54616 | 100.76919 | 37188 ft | 475 kts | 205° |
| 2026-04-30 09:13 | 15.51518 | 100.75751 | 36491 ft | 474 kts | 204° |
| 2026-04-30 09:13 | 15.48415 | 100.74584 | 35726 ft | 473 kts | 204° |
| 2026-04-30 09:13 | 15.45317 | 100.73420 | 34848 ft | 475 kts | 204° |
| 2026-04-30 09:14 | 15.42246 | 100.72265 | 33943 ft | 477 kts | 204° |
| 2026-04-30 09:14 | 15.39115 | 100.71087 | 32861 ft | 480 kts | 204° |
| 2026-04-30 09:14 | 15.35955 | 100.69899 | 31857 ft | 483 kts | 203° |
| 2026-04-30 09:14 | 15.32810 | 100.68719 | 31170 ft | 479 kts | 203° |
| 2026-04-30 09:15 | 15.29645 | 100.67658 | 30468 ft | 478 kts | 198° |
| 2026-04-30 09:15 | 15.26393 | 100.66922 | 29753 ft | 478 kts | 193° |
| 2026-04-30 09:15 | 15.23104 | 100.66477 | 28928 ft | 477 kts | 187° |
| 2026-04-30 09:15 | 15.19800 | 100.66307 | 28150 ft | 472 kts | 185° |
| 2026-04-30 09:16 | 15.16539 | 100.66168 | 27400 ft | 467 kts | 185° |
| 2026-04-30 09:16 | 15.13306 | 100.66027 | 26673 ft | 463 kts | 185° |
| 2026-04-30 09:16 | 15.10104 | 100.65878 | 25956 ft | 458 kts | 185° |
| 2026-04-30 09:16 | 15.06930 | 100.65722 | 25237 ft | 454 kts | 185° |
| 2026-04-30 09:17 | 15.03788 | 100.65561 | 24507 ft | 452 kts | 185° |
| 2026-04-30 09:17 | 15.00658 | 100.65399 | 23792 ft | 449 kts | 184° |
| 2026-04-30 09:17 | 14.97541 | 100.65236 | 23014 ft | 446 kts | 184° |
| 2026-04-30 09:17 | 14.94460 | 100.65075 | 22239 ft | 442 kts | 184° |
| 2026-04-30 09:18 | 14.91407 | 100.64916 | 21516 ft | 437 kts | 184° |
| 2026-04-30 09:18 | 14.88383 | 100.64760 | 20825 ft | 432 kts | 184° |
| 2026-04-30 09:18 | 14.85402 | 100.64605 | 20136 ft | 427 kts | 184° |
| 2026-04-30 09:18 | 14.82491 | 100.64453 | 19487 ft | 422 kts | 184° |
| 2026-04-30 09:19 | 14.79577 | 100.64302 | 18819 ft | 418 kts | 185° |
| 2026-04-30 09:19 | 14.76679 | 100.64151 | 18181 ft | 414 kts | 185° |
| 2026-04-30 09:19 | 14.73851 | 100.64006 | 17960 ft | 399 kts | 185° |
| 2026-04-30 09:19 | 14.71135 | 100.64041 | 17689 ft | 383 kts | 173° |
| 2026-04-30 09:20 | 14.68611 | 100.64784 | 17391 ft | 374 kts | 163° |
| 2026-04-30 09:20 | 14.66153 | 100.65630 | 17066 ft | 369 kts | 164° |
| 2026-04-30 09:20 | 14.63719 | 100.66413 | 16762 ft | 365 kts | 165° |
| 2026-04-30 09:20 | 14.61296 | 100.67165 | 16457 ft | 362 kts | 165° |
| 2026-04-30 09:21 | 14.58893 | 100.67903 | 16156 ft | 360 kts | 165° |
| 2026-04-30 09:21 | 14.56494 | 100.68638 | 15862 ft | 359 kts | 165° |
| 2026-04-30 09:21 | 14.54107 | 100.69373 | 15568 ft | 357 kts | 165° |
| 2026-04-30 09:21 | 14.51727 | 100.70106 | 15277 ft | 356 kts | 165° |
| 2026-04-30 09:22 | 14.49365 | 100.70832 | 14981 ft | 354 kts | 165° |
| 2026-04-30 09:22 | 14.47011 | 100.71532 | 14673 ft | 349 kts | 168° |
| 2026-04-30 09:22 | 14.44648 | 100.71829 | 14394 ft | 346 kts | 181° |
| 2026-04-30 09:22 | 14.42255 | 100.71659 | 14117 ft | 344 kts | 191° |
| 2026-04-30 09:23 | 14.39934 | 100.71088 | 13833 ft | 342 kts | 196° |
| 2026-04-30 09:23 | 14.37630 | 100.70451 | 13521 ft | 343 kts | 195° |
| 2026-04-30 09:23 | 14.35325 | 100.69820 | 13213 ft | 343 kts | 195° |
| 2026-04-30 09:23 | 14.33021 | 100.69197 | 12914 ft | 341 kts | 195° |
| 2026-04-30 09:24 | 14.30736 | 100.68587 | 12627 ft | 338 kts | 195° |
| 2026-04-30 09:24 | 14.28461 | 100.67986 | 12344 ft | 336 kts | 194° |
| 2026-04-30 09:24 | 14.26204 | 100.67392 | 12063 ft | 333 kts | 195° |
| 2026-04-30 09:24 | 14.23965 | 100.66803 | 11784 ft | 331 kts | 194° |
| 2026-04-30 09:25 | 14.21734 | 100.66215 | 11516 ft | 330 kts | 194° |
| 2026-04-30 09:25 | 14.19509 | 100.65630 | 11236 ft | 330 kts | 194° |
| 2026-04-30 09:25 | 14.17284 | 100.65044 | 10952 ft | 328 kts | 194° |
| 2026-04-30 09:25 | 14.15078 | 100.64464 | 10691 ft | 326 kts | 194° |
| 2026-04-30 09:26 | 14.12902 | 100.63891 | 10394 ft | 319 kts | 194° |
| 2026-04-30 09:26 | 14.10779 | 100.63332 | 10129 ft | 311 kts | 194° |
| 2026-04-30 09:26 | 14.08702 | 100.62786 | 9878 ft | 304 kts | 194° |
| 2026-04-30 09:26 | 14.06696 | 100.62258 | 9792 ft | 292 kts | 194° |
| 2026-04-30 09:27 | 14.04748 | 100.61747 | 9520 ft | 286 kts | 194° |
| 2026-04-30 09:27 | 14.02849 | 100.61323 | 9275 ft | 273 kts | 183° |
| 2026-04-30 09:27 | 14.01023 | 100.61641 | 9082 ft | 265 kts | 156° |
| 2026-04-30 09:27 | 13.99531 | 100.62706 | 8846 ft | 261 kts | 136° |
| 2026-04-30 09:28 | 13.98421 | 100.64160 | 8615 ft | 257 kts | 119° |
| 2026-04-30 09:28 | 13.97813 | 100.65873 | 8369 ft | 253 kts | 107° |
| 2026-04-30 09:28 | 13.97371 | 100.67626 | 8161 ft | 259 kts | 105° |
| 2026-04-30 09:28 | 13.97127 | 100.69453 | 7910 ft | 254 kts | 85° |
| 2026-04-30 09:29 | 13.97699 | 100.71125 | 7716 ft | 254 kts | 58° |
| 2026-04-30 09:29 | 13.98940 | 100.72408 | 7500 ft | 255 kts | 35° |
| 2026-04-30 09:29 | 14.00550 | 100.73143 | 7263 ft | 254 kts | 18° |
| 2026-04-30 09:29 | 14.02190 | 100.73740 | 6884 ft | 247 kts | 36° |
| 2026-04-30 09:30 | 14.03229 | 100.75089 | 6495 ft | 238 kts | 75° |
| 2026-04-30 09:30 | 14.03275 | 100.76723 | 5837 ft | 230 kts | 106° |
| 2026-04-30 09:30 | 14.02837 | 100.78291 | 5594 ft | 229 kts | 103° |
| 2026-04-30 09:30 | 14.02512 | 100.79938 | 5370 ft | 238 kts | 102° |
| 2026-04-30 09:31 | 14.02192 | 100.81602 | 5127 ft | 233 kts | 105° |
| 2026-04-30 09:31 | 14.01427 | 100.83038 | 4928 ft | 232 kts | 136° |
| 2026-04-30 09:31 | 14.00008 | 100.83797 | 4702 ft | 235 kts | 169° |
| 2026-04-30 09:31 | 13.98373 | 100.83725 | 4510 ft | 237 kts | 187° |
| 2026-04-30 09:32 | 13.96766 | 100.83383 | 4281 ft | 235 kts | 190° |
| 2026-04-30 09:32 | 13.95187 | 100.82984 | 4056 ft | 233 kts | 191° |
| 2026-04-30 09:32 | 13.93645 | 100.82577 | 3819 ft | 220 kts | 192° |
| 2026-04-30 09:32 | 13.92689 | 100.82322 | 3688 ft | 211 kts | 192° |
| 2026-04-30 09:33 | 13.91281 | 100.81947 | 3518 ft | 208 kts | 191° |
| 2026-04-30 09:33 | 13.89894 | 100.81579 | 3335 ft | 205 kts | 191° |
| 2026-04-30 09:33 | 13.88524 | 100.81218 | 3163 ft | 201 kts | 192° |
| 2026-04-30 09:33 | 13.87181 | 100.80863 | 3002 ft | 197 kts | 192° |
| 2026-04-30 09:34 | 13.85864 | 100.80514 | 2825 ft | 195 kts | 191° |
| 2026-04-30 09:34 | 13.84148 | 100.80060 | 2584 ft | 184 kts | 191° |
| 2026-04-30 09:34 | 13.83339 | 100.79844 | 2460 ft | 172 kts | 191° |
| 2026-04-30 09:34 | 13.82235 | 100.79551 | 2271 ft | 156 kts | 191° |
| 2026-04-30 09:35 | 13.81184 | 100.79278 | 2183 ft | 155 kts | 190° |
| 2026-04-30 09:35 | 13.80188 | 100.79010 | 2028 ft | 140 kts | 191° |
| 2026-04-30 09:35 | 13.79270 | 100.78769 | 1898 ft | 132 kts | 191° |
| 2026-04-30 09:35 | 13.78378 | 100.78535 | 1756 ft | 130 kts | 191° |
| 2026-04-30 09:36 | 13.77515 | 100.78307 | 1620 ft | 132 kts | 193° |
| 2026-04-30 09:36 | 13.76639 | 100.78076 | 1448 ft | 130 kts | 194° |
| 2026-04-30 09:36 | 13.75775 | 100.77845 | 1279 ft | 129 kts | 193° |
| 2026-04-30 09:36 | 13.74882 | 100.77611 | 1117 ft | 135 kts | 193° |
| 2026-04-30 09:37 | 13.73998 | 100.77377 | 948 ft | 128 kts | 194° |
| 2026-04-30 09:37 | 13.73120 | 100.77144 | 797 ft | 129 kts | 193° |
| 2026-04-30 09:37 | 13.72254 | 100.76917 | 665 ft | 132 kts | 195° |
| 2026-04-30 09:37 | 13.71368 | 100.76682 | 481 ft | 126 kts | 194° |
| 2026-04-30 09:38 | 13.70533 | 100.76464 | 327 ft | 126 kts | 195° |
| 2026-04-30 09:38 | 13.69675 | 100.76236 | 181 ft | 127 kts | 195° |
| 2026-04-30 09:38 | 13.68826 | 100.76013 | 34 ft | 119 kts | 194° |
| 2026-04-30 09:38 | 13.68126 | 100.75830 | 17 ft | 85 kts | 194° |
| 2026-04-30 09:39 | 13.67699 | 100.75717 | 15 ft | 41 kts | 196° |
| 2026-04-30 09:39 | 13.67535 | 100.75621 | 16 ft | 24 kts | 219° |
| 2026-04-30 09:39 | 13.67451 | 100.75512 | 17 ft | 16 kts | 267° |
| 2026-04-30 09:39 | 13.67512 | 100.75479 | 17 ft | 11 kts | 8° |
| 2026-04-30 09:40 | 13.67584 | 100.75496 | 17 ft | 11 kts | 14° |
| 2026-04-30 09:40 | 13.67655 | 100.75515 | 17 ft | 11 kts | 14° |
| 2026-04-30 09:40 | 13.67728 | 100.75533 | 17 ft | 11 kts | 5° |
| 2026-04-30 09:40 | 13.67770 | 100.75478 | 17 ft | 11 kts | 287° |
| 2026-04-30 09:41 | 13.67790 | 100.75401 | 18 ft | 11 kts | 284° |
| 2026-04-30 09:41 | 13.67810 | 100.75322 | 35 ft | 11 kts | 284° |
| 2026-04-30 09:41 | 13.67829 | 100.75244 | 18 ft | 11 kts | 284° |
| 2026-04-30 09:41 | 13.67848 | 100.75165 | 18 ft | 11 kts | 284° |
| 2026-04-30 09:42 | 13.67868 | 100.75087 | 18 ft | 11 kts | 285° |
| 2026-04-30 09:42 | 13.67889 | 100.75008 | 18 ft | 11 kts | 285° |
| 2026-04-30 09:42 | 13.67943 | 100.74963 | 18 ft | 11 kts | 2° |
| 2026-04-30 09:42 | 13.68022 | 100.74953 | 18 ft | 12 kts | 6° |
| 2026-04-30 09:43 | 13.68068 | 100.74964 | 18 ft | 4 kts | 15° |
| 2026-04-30 09:43 | 13.68092 | 100.74971 | 18 ft | 0 kts | 14° |